Time;durP1;ratioP1;P1;durP2;ratioP2;P2;SDS_P1;SDS_P2;PMS_P1;PMS_P2;Temp;Humidity;BMP_temperature;BMP_pressure;BME280_temperature;BME280_humidity;BME280_pressure;Samples;Min_cycle;Max_cycle;Signal;HPM_P1;HPM_P2
2023/08/15 00:01:21;;;;;;;10.70;7.28;;;;;;;27.37;nan;97895.53;5054845;28;21523;-64
2023/08/15 00:03:50;;;;;;;10.38;7.45;;;;;;;27.31;nan;97886.72;5063194;28;20101;-65
2023/08/15 00:06:20;;;;;;;11.85;8.02;;;;;;;27.34;nan;97885.28;5063255;28;20048;-65
2023/08/15 00:08:54;;;;;;;10.50;7.78;;;;;;;27.21;nan;97892.50;5063232;28;20044;-65
2023/08/15 00:11:24;;;;;;;15.52;7.55;;;;;;;27.30;nan;97895.22;5062519;28;20775;-65
2023/08/15 00:14:01;;;;;;;14.65;8.23;;;;;;;27.25;nan;97891.53;5064530;28;20193;-64
2023/08/15 00:16:31;;;;;;;19.35;7.65;;;;;;;27.31;nan;97894.88;5062449;28;20041;-65
2023/08/15 00:19:02;;;;;;;13.40;7.65;;;;;;;27.35;nan;97898.53;5064376;28;20060;-65
2023/08/15 00:21:32;;;;;;;11.98;8.15;;;;;;;27.33;nan;97897.28;5052298;28;20044;-66
2023/08/15 00:24:01;;;;;;;11.27;7.47;;;;;;;27.34;nan;97898.88;5053129;28;20067;-66
2023/08/15 00:26:31;;;;;;;11.10;7.53;;;;;;;27.21;nan;97895.22;5076611;28;20515;-65
2023/08/15 00:29:01;;;;;;;16.55;7.95;;;;;;;27.32;nan;97907.34;5059315;28;20055;-66
2023/08/15 00:31:31;;;;;;;18.92;8.57;;;;;;;27.31;nan;97900.31;5061405;28;20558;-65
2023/08/15 00:34:01;;;;;;;14.48;7.68;;;;;;;27.36;nan;97904.78;5068941;28;20071;-66
2023/08/15 00:36:30;;;;;;;13.70;7.30;;;;;;;27.38;nan;97902.56;5046557;28;20056;-66
2023/08/15 00:39:02;;;;;;;13.65;8.05;;;;;;;27.39;nan;97907.69;5043226;28;20051;-65
2023/08/15 00:41:32;;;;;;;11.38;7.55;;;;;;;27.24;nan;97898.09;5061179;28;20064;-65
2023/08/15 00:44:02;;;;;;;13.80;7.97;;;;;;;27.30;nan;97906.09;5063397;28;20041;-66
2023/08/15 00:46:32;;;;;;;14.75;8.90;;;;;;;27.39;nan;97920.50;5065719;28;20040;-65
2023/08/15 00:49:01;;;;;;;12.40;8.65;;;;;;;27.42;nan;97923.38;5064027;28;20044;-66
2023/08/15 00:51:32;;;;;;;13.13;7.85;;;;;;;27.38;nan;97908.00;5066291;28;20056;-65
2023/08/15 00:54:02;;;;;;;15.77;8.45;;;;;;;27.39;nan;97915.84;5067921;28;20048;-67
2023/08/15 00:56:32;;;;;;;16.60;8.30;;;;;;;27.47;nan;97917.75;5045835;28;20049;-66
2023/08/15 00:59:02;;;;;;;18.95;8.32;;;;;;;27.51;nan;97913.31;5070478;28;20136;-66
2023/08/15 01:01:33;;;;;;;20.33;7.97;;;;;;;27.56;nan;97926.75;5057793;28;20051;-64
2023/08/15 01:04:03;;;;;;;13.70;7.75;;;;;;;27.55;nan;97922.41;5055468;28;20040;-64
2023/08/15 01:06:32;;;;;;;19.50;8.05;;;;;;;27.63;nan;97934.41;5045240;28;20055;-64
2023/08/15 01:09:02;;;;;;;15.73;8.75;;;;;;;27.58;nan;97927.22;5042222;28;20473;-64
2023/08/15 01:11:43;;;;;;;16.73;8.15;;;;;;;27.67;nan;97940.78;5051100;28;20109;-64
2023/08/15 01:14:19;;;;;;;20.05;8.50;;;;;;;27.53;nan;97927.38;5073519;28;20055;-64
2023/08/15 01:16:52;;;;;;;16.83;8.45;;;;;;;27.62;nan;97930.06;5043852;28;20364;-64
2023/08/15 01:19:26;;;;;;;;;;;;;;;27.75;nan;97929.09;5051512;28;20059;-64
2023/08/15 01:21:59;;;;;;;12.50;8.27;;;;;;;27.82;nan;97923.97;5062292;28;19924;-64
2023/08/15 01:24:30;;;;;;;18.08;8.70;;;;;;;27.80;nan;97919.97;5073982;28;20040;-64
2023/08/15 01:27:00;;;;;;;19.30;8.63;;;;;;;27.86;nan;97922.22;5046635;28;20475;-64
2023/08/15 01:29:29;;;;;;;21.65;9.38;;;;;;;27.92;nan;97934.53;5047003;28;20059;-64
2023/08/15 01:32:28;;;;;;;15.93;8.77;;;;;;;28.01;nan;97950.84;5058349;28;20421;-65
2023/08/15 01:35:07;;;;;;;18.85;8.45;;;;;;;28.03;nan;97945.84;5057878;28;20147;-65
2023/08/15 01:37:41;;;;;;;17.80;8.73;;;;;;;28.13;nan;97948.28;5060140;28;20044;-65
2023/08/15 01:40:16;;;;;;;20.55;10.10;;;;;;;28.10;nan;97941.53;5031073;28;20140;-65
2023/08/15 01:42:48;;;;;;;17.50;8.65;;;;;;;28.14;nan;97938.97;5063552;28;20094;-65
2023/08/15 01:45:18;;;;;;;16.90;9.38;;;;;;;28.20;nan;97945.84;5065760;28;20444;-65
2023/08/15 01:47:48;;;;;;;19.15;8.95;;;;;;;28.38;nan;97954.75;5050666;28;20048;-67
2023/08/15 01:50:18;;;;;;;16.90;9.57;;;;;;;28.51;nan;97961.91;5066122;28;20430;-66
2023/08/15 01:52:48;;;;;;;18.52;9.30;;;;;;;28.58;nan;97964.94;5043376;28;20472;-66
2023/08/15 01:55:18;;;;;;;16.08;9.52;;;;;;;28.48;nan;97962.56;5066045;28;20045;-67
2023/08/15 01:57:47;;;;;;;22.90;9.25;;;;;;;28.47;nan;97967.22;5050122;28;20045;-66
2023/08/15 02:00:16;;;;;;;22.15;9.45;;;;;;;28.57;nan;97961.41;5065222;28;20127;-66
2023/08/15 02:02:47;;;;;;;18.52;9.60;;;;;;;28.72;nan;97959.28;5064158;28;20863;-66
2023/08/15 02:05:16;;;;;;;18.55;9.25;;;;;;;28.75;nan;97966.78;5049410;28;20101;-65
2023/08/15 02:07:46;;;;;;;19.58;8.82;;;;;;;28.83;nan;97968.66;5065143;28;20439;-65
2023/08/15 02:10:16;;;;;;;22.33;9.85;;;;;;;28.88;nan;97974.75;5047495;28;20059;-65
2023/08/15 02:12:48;;;;;;;20.27;9.63;;;;;;;28.99;nan;97962.31;5062164;28;20048;-64
2023/08/15 02:15:18;;;;;;;22.27;9.43;;;;;;;29.07;nan;97965.34;5056274;28;20816;-65
2023/08/15 02:17:47;;;;;;;20.45;9.32;;;;;;;29.35;nan;97971.88;5062625;28;20052;-66
2023/08/15 02:20:17;;;;;;;20.25;9.70;;;;;;;29.32;nan;97958.91;5057694;28;20106;-66
2023/08/15 02:22:46;;;;;;;13.45;9.65;;;;;;;29.38;nan;97972.03;5063143;28;20051;-65
2023/08/15 02:25:15;;;;;;;15.95;8.90;;;;;;;29.63;nan;97963.97;5047345;28;20044;-65
2023/08/15 02:27:45;;;;;;;23.80;9.65;;;;;;;29.95;nan;97974.13;5054835;28;20062;-65
2023/08/15 02:30:14;;;;;;;19.85;9.57;;;;;;;30.02;nan;97970.84;5055595;28;20098;-65
2023/08/15 02:32:44;;;;;;;18.42;10.27;;;;;;;30.11;nan;97979.75;5065562;28;20048;-67
2023/08/15 02:35:13;;;;;;;20.42;9.15;;;;;;;30.66;nan;97987.50;5063357;28;20048;-67
2023/08/15 02:37:45;;;;;;;20.93;10.30;;;;;;;30.72;nan;97977.91;5043224;28;20036;-67
2023/08/15 02:40:15;;;;;;;21.00;10.98;;;;;;;30.65;nan;97988.63;5070735;28;20290;-66
2023/08/15 02:42:45;;;;;;;22.73;9.68;;;;;;;30.76;nan;98001.50;5063255;28;20051;-66
2023/08/15 02:45:14;;;;;;;19.60;9.95;;;;;;;30.86;nan;97999.44;5060948;28;20479;-65
2023/08/15 02:47:48;;;;;;;18.08;10.43;;;;;;;31.11;nan;97992.88;5060487;28;20057;-67
2023/08/15 02:50:18;;;;;;;22.08;11.35;;;;;;;31.20;nan;97997.06;5062353;28;20045;-67
2023/08/15 02:52:47;;;;;;;19.88;9.48;;;;;;;31.02;nan;97994.94;5075467;28;20110;-66
2023/08/15 02:55:16;;;;;;;22.75;9.80;;;;;;;30.75;nan;97985.47;5061875;28;20053;-67
2023/08/15 02:57:47;;;;;;;23.55;10.23;;;;;;;30.92;nan;97984.41;5043962;28;20065;-67
2023/08/15 03:00:16;;;;;;;18.55;10.00;;;;;;;30.66;nan;97980.09;5060939;28;20051;-66
2023/08/15 03:02:46;;;;;;;22.98;10.10;;;;;;;30.74;nan;97998.31;5061310;28;20044;-67
2023/08/15 03:05:15;;;;;;;20.83;9.63;;;;;;;30.80;nan;97990.69;5054720;28;20048;-66
2023/08/15 03:07:45;;;;;;;20.55;10.75;;;;;;;30.83;nan;97994.69;5059296;28;20057;-67
2023/08/15 03:10:14;;;;;;;22.67;11.23;;;;;;;30.77;nan;97992.16;5042221;28;20059;-68
2023/08/15 03:12:44;;;;;;;24.52;10.77;;;;;;;30.83;nan;97995.47;5063689;28;20048;-65
2023/08/15 03:15:13;;;;;;;19.63;9.23;;;;;;;30.77;nan;97996.84;5055070;28;20048;-66
2023/08/15 03:17:42;;;;;;;20.67;9.93;;;;;;;30.87;nan;97987.38;5045792;28;20044;-67
2023/08/15 03:20:12;;;;;;;22.10;10.98;;;;;;;30.58;nan;97991.91;5057988;28;20056;-66
2023/08/15 03:22:43;;;;;;;26.63;10.82;;;;;;;30.64;nan;97995.22;5034993;28;20052;-66
2023/08/15 03:25:12;;;;;;;18.77;9.63;;;;;;;30.64;nan;97993.28;5059626;28;20338;-67
2023/08/15 03:27:43;;;;;;;29.70;11.50;;;;;;;30.81;nan;98003.22;5045735;28;20048;-67
2023/08/15 03:30:12;;;;;;;18.25;9.43;;;;;;;30.77;nan;97991.38;5062097;28;20055;-67
2023/08/15 03:32:42;;;;;;;19.45;9.80;;;;;;;30.71;nan;97990.78;5060809;28;20044;-66
2023/08/15 03:35:12;;;;;;;23.08;10.80;;;;;;;31.04;nan;97995.38;5060018;28;20042;-67
2023/08/15 03:37:42;;;;;;;23.65;10.52;;;;;;;30.93;nan;98000.50;5061309;28;20070;-66
2023/08/15 03:40:12;;;;;;;24.23;10.40;;;;;;;30.91;nan;98001.97;5058324;28;20053;-66
2023/08/15 03:42:41;;;;;;;23.77;10.70;;;;;;;30.81;nan;97992.28;5064560;28;20066;-66
2023/08/15 03:45:11;;;;;;;22.45;11.60;;;;;;;30.98;nan;97994.00;5046142;28;20059;-67
2023/08/15 03:47:40;;;;;;;26.15;12.07;;;;;;;31.23;nan;97992.84;5053693;28;20036;-67
2023/08/15 03:50:11;;;;;;;22.08;10.48;;;;;;;31.38;nan;97994.09;5062492;28;20040;-66
2023/08/15 03:52:41;;;;;;;21.67;11.60;;;;;;;31.43;nan;98000.09;5058985;28;20040;-66
2023/08/15 03:55:10;;;;;;;25.55;12.45;;;;;;;31.38;nan;97999.56;5057156;28;20102;-66
2023/08/15 03:57:40;;;;;;;28.83;12.60;;;;;;;31.62;nan;98000.31;5061690;28;20044;-65
2023/08/15 04:00:10;;;;;;;26.33;11.10;;;;;;;31.71;nan;97997.44;5061774;28;20049;-64
2023/08/15 04:02:45;;;;;;;25.63;12.10;;;;;;;31.68;nan;98009.09;5063047;28;20120;-65
2023/08/15 04:05:15;;;;;;;22.55;10.80;;;;;;;31.51;nan;98001.91;5045475;28;20036;-66
2023/08/15 04:07:45;;;;;;;25.20;11.48;;;;;;;31.76;nan;98007.34;5028756;28;20551;-66
2023/08/15 04:10:18;;;;;;;24.20;11.70;;;;;;;31.93;nan;97999.63;5044642;28;20071;-65
2023/08/15 04:12:48;;;;;;;23.98;11.55;;;;;;;32.15;nan;98005.72;5041056;28;20574;-68
2023/08/15 04:15:18;;;;;;;22.17;10.35;;;;;;;32.10;nan;98006.75;5042794;28;20037;-66
2023/08/15 04:17:51;;;;;;;24.67;11.20;;;;;;;32.21;nan;98004.31;5038735;28;20547;-67
2023/08/15 04:20:20;;;;;;;26.35;12.48;;;;;;;32.13;nan;98016.25;5039161;28;20045;-66
2023/08/15 04:22:50;;;;;;;22.05;11.13;;;;;;;32.29;nan;98017.06;5057696;28;20045;-66
2023/08/15 04:25:23;;;;;;;20.27;10.60;;;;;;;32.29;nan;98015.13;5041532;28;20501;-67
2023/08/15 04:27:53;;;;;;;22.88;10.57;;;;;;;32.40;nan;98018.13;5041707;28;20045;-65
2023/08/15 04:30:22;;;;;;;21.25;10.65;;;;;;;32.38;nan;98012.22;5057030;28;20056;-65
2023/08/15 04:32:52;;;;;;;19.70;10.82;;;;;;;32.36;nan;98018.03;5084348;28;20044;-66
2023/08/15 04:35:22;;;;;;;22.75;10.75;;;;;;;32.54;nan;98027.50;5064075;28;20067;-65
2023/08/15 04:37:52;;;;;;;19.48;10.50;;;;;;;32.86;nan;98013.84;5054427;28;20054;-66
2023/08/15 04:40:40;;;;;;;17.58;9.93;;;;;;;32.95;nan;98009.75;5057784;28;20938;-67
2023/08/15 04:43:10;;;;;;;19.98;10.65;;;;;;;32.77;nan;98011.28;5057129;28;20065;-66
2023/08/15 04:45:40;;;;;;;18.40;9.65;;;;;;;32.97;nan;98015.66;5039426;28;20106;-66
2023/08/15 04:48:12;;;;;;;24.33;10.70;;;;;;;33.06;nan;98009.22;5062586;28;20486;-66
2023/08/15 04:50:43;;;;;;;72.10;14.47;;;;;;;33.34;nan;98021.66;5035814;28;20105;-67
2023/08/15 04:53:13;;;;;;;18.73;8.40;;;;;;;33.68;nan;98020.06;5058222;28;20135;-67
2023/08/15 04:55:42;;;;;;;20.98;8.73;;;;;;;33.88;nan;98014.56;5060706;28;20060;-66
2023/08/15 04:58:12;;;;;;;21.85;8.73;;;;;;;34.22;nan;98017.25;5036903;28;20041;-66
2023/08/15 05:00:42;;;;;;;16.85;9.55;;;;;;;34.13;nan;98019.41;5062094;28;20064;-66
2023/08/15 05:03:12;;;;;;;21.80;9.50;;;;;;;34.14;nan;98020.19;5059616;28;20037;-65
2023/08/15 05:05:41;;;;;;;20.27;7.70;;;;;;;33.65;nan;98022.72;5062455;28;20044;-65
2023/08/15 05:08:12;;;;;;;15.25;7.47;;;;;;;34.20;nan;98029.78;5062130;28;20055;-65
2023/08/15 05:10:42;;;;;;;16.92;7.47;;;;;;;34.52;nan;98039.38;5062972;28;20460;-65
2023/08/15 05:13:18;;;;;;;15.13;6.80;;;;;;;34.36;nan;98029.66;5043005;28;20055;-66
2023/08/15 05:15:49;;;;;;;15.85;6.32;;;;;;;34.70;nan;98028.72;5022396;28;20052;-66
2023/08/15 05:18:19;;;;;;;15.82;6.50;;;;;;;34.55;nan;98032.38;5066832;28;20036;-65
2023/08/15 05:20:49;;;;;;;18.95;7.05;;;;;;;35.21;nan;98026.44;5050602;28;20143;-66
2023/08/15 05:23:19;;;;;;;19.58;7.18;;;;;;;35.29;nan;98036.38;5046243;28;20036;-68
2023/08/15 05:25:49;;;;;;;16.77;7.47;;;;;;;34.98;nan;98025.66;5046104;28;20171;-66
2023/08/15 05:28:18;;;;;;;21.30;6.70;;;;;;;34.70;nan;98026.78;5078089;28;20068;-67
2023/08/15 05:30:48;;;;;;;18.55;7.10;;;;;;;34.37;nan;98026.56;5018384;28;20328;-66
2023/08/15 05:33:18;;;;;;;21.13;6.93;;;;;;;34.09;nan;98032.28;5059920;28;20056;-66
2023/08/15 05:35:48;;;;;;;18.42;7.32;;;;;;;34.34;nan;98026.50;5066708;28;20052;-66
2023/08/15 05:38:18;;;;;;;23.20;8.05;;;;;;;34.30;nan;98026.41;5066566;28;20040;-67
2023/08/15 05:40:47;;;;;;;18.15;7.18;;;;;;;34.43;nan;98022.38;5049712;28;20079;-66
2023/08/15 05:43:17;;;;;;;18.73;7.72;;;;;;;34.66;nan;98019.63;5067024;28;20468;-67
2023/08/15 05:45:48;;;;;;;20.38;9.13;;;;;;;34.66;nan;98014.91;5050380;28;20044;-66
2023/08/15 05:48:18;;;;;;;17.52;8.05;;;;;;;34.94;nan;98017.34;5049541;28;20110;-67
2023/08/15 05:50:47;;;;;;;24.23;8.63;;;;;;;34.90;nan;98024.75;5066811;28;20127;-66
2023/08/15 05:53:16;;;;;;;20.13;8.07;;;;;;;34.89;nan;98020.41;5057500;28;20056;-68
2023/08/15 05:55:46;;;;;;;18.20;7.70;;;;;;;34.41;nan;98010.13;5066941;28;20498;-67
2023/08/15 05:58:15;;;;;;;17.80;7.70;;;;;;;34.90;nan;98011.00;5059765;28;20055;-70
2023/08/15 06:00:47;;;;;;;21.98;7.32;;;;;;;34.77;nan;98017.84;5063763;28;20044;-71
2023/08/15 06:03:19;;;;;;;18.35;6.80;;;;;;;35.03;nan;98009.63;5055270;28;20106;-68
2023/08/15 06:06:03;;;;;;;16.67;7.53;;;;;;;35.02;nan;97998.97;5057673;28;20044;-69
2023/08/15 06:08:32;;;;;;;18.75;7.07;;;;;;;35.10;nan;97992.41;5060919;28;20476;-69
2023/08/15 06:11:01;;;;;;;20.95;7.97;;;;;;;34.71;nan;97992.59;5066418;28;20185;-69
2023/08/15 06:13:30;;;;;;;14.02;6.93;;;;;;;34.68;nan;97996.09;5062650;28;20533;-69
2023/08/15 06:16:00;;;;;;;18.75;7.47;;;;;;;34.51;nan;97988.31;5063679;28;20040;-68
2023/08/15 06:18:30;;;;;;;23.00;8.02;;;;;;;34.23;nan;97990.56;5065805;28;20692;-68
2023/08/15 06:21:00;;;;;;;20.83;7.97;;;;;;;34.16;nan;97991.22;5056133;28;20127;-68
2023/08/15 06:23:29;;;;;;;19.00;7.82;;;;;;;34.25;nan;97988.25;5071739;28;20578;-68
2023/08/15 06:25:59;;;;;;;25.85;8.38;;;;;;;34.48;nan;97990.97;5066558;28;20056;-68
2023/08/15 06:28:29;;;;;;;15.75;7.57;;;;;;;34.51;nan;97993.81;5062301;28;20052;-68
2023/08/15 06:30:58;;;;;;;20.25;8.43;;;;;;;34.34;nan;97991.56;5066853;28;20052;-68
2023/08/15 06:33:27;;;;;;;19.75;8.02;;;;;;;34.14;nan;97984.47;5065128;28;20129;-69
2023/08/15 06:35:57;;;;;;;18.33;7.53;;;;;;;34.26;nan;97985.09;5066860;28;20058;-68
2023/08/15 06:38:26;;;;;;;16.60;8.20;;;;;;;34.45;nan;97984.28;5065119;28;20163;-68
2023/08/15 06:40:57;;;;;;;21.73;7.60;;;;;;;34.55;nan;97978.16;5067400;28;20135;-68
2023/08/15 06:43:26;;;;;;;22.75;9.60;;;;;;;34.56;nan;97974.25;5064523;28;20045;-68
2023/08/15 06:45:55;;;;;;;16.92;7.45;;;;;;;34.80;nan;97973.06;5065943;28;20061;-69
2023/08/15 06:48:25;;;;;;;15.02;7.75;;;;;;;34.75;nan;97980.84;5062670;28;20048;-70
2023/08/15 06:50:55;;;;;;;18.65;7.43;;;;;;;34.31;nan;97973.00;5065367;28;20063;-69
2023/08/15 06:53:25;;;;;;;18.77;8.32;;;;;;;34.84;nan;97971.19;5065975;28;20044;-67
2023/08/15 06:55:54;;;;;;;20.70;8.50;;;;;;;34.64;nan;97969.66;5066107;28;20048;-69
2023/08/15 06:58:24;;;;;;;15.57;8.05;;;;;;;34.51;nan;97977.31;5063939;28;20050;-69
2023/08/15 07:00:55;;;;;;;14.68;8.20;;;;;;;34.55;nan;97966.38;5064829;28;20053;-68
2023/08/15 07:03:24;;;;;;;17.92;8.38;;;;;;;34.96;nan;97962.72;5056659;28;20044;-67
2023/08/15 07:05:53;;;;;;;19.42;8.68;;;;;;;34.98;nan;97963.13;5065049;28;20678;-68
2023/08/15 07:08:23;;;;;;;21.80;8.95;;;;;;;34.84;nan;97967.63;5038392;28;20114;-68
2023/08/15 07:10:56;;;;;;;16.95;7.68;;;;;;;34.70;nan;97963.50;5063178;28;20341;-68
2023/08/15 07:13:25;;;;;;;25.80;9.32;;;;;;;34.61;nan;97956.66;5063511;28;20050;-70
2023/08/15 07:15:55;;;;;;;19.45;9.90;;;;;;;34.83;nan;97953.06;5056776;28;20368;-66
2023/08/15 07:18:25;;;;;;;20.15;8.43;;;;;;;35.07;nan;97957.38;5054516;28;20056;-68
2023/08/15 07:20:55;;;;;;;20.15;8.38;;;;;;;34.72;nan;97961.19;5064902;28;20053;-68
2023/08/15 07:23:24;;;;;;;20.40;8.48;;;;;;;34.66;nan;97956.34;5062648;28;20060;-67
2023/08/15 07:25:54;;;;;;;19.42;8.20;;;;;;;34.70;nan;97955.22;5057451;28;20052;-69
2023/08/15 07:28:23;;;;;;;18.77;7.40;;;;;;;34.92;nan;97956.34;5061074;28;20067;-67
2023/08/15 07:30:52;;;;;;;15.82;8.07;;;;;;;34.65;nan;97950.00;5062992;28;20349;-69
2023/08/15 07:33:23;;;;;;;15.25;7.32;;;;;;;34.42;nan;97941.00;5060161;28;20059;-66
2023/08/15 07:36:06;;;;;;;;;;;;;;;34.26;nan;97932.88;5062572;28;20048;-69
2023/08/15 07:38:36;;;;;;;22.60;8.80;;;;;;;34.03;nan;97942.25;5056844;28;20024;-68
2023/08/15 07:41:05;;;;;;;18.10;7.93;;;;;;;34.00;nan;97938.25;5060771;28;20059;-68
2023/08/15 07:43:35;;;;;;;20.73;9.43;;;;;;;34.03;nan;97934.81;5052328;28;20048;-66
2023/08/15 07:46:06;;;;;;;16.65;9.10;;;;;;;33.92;nan;97927.50;5053613;28;20055;-67
2023/08/15 07:48:35;;;;;;;15.98;7.18;;;;;;;34.12;nan;97923.56;5056593;28;20126;-69
2023/08/15 07:51:05;;;;;;;15.73;8.02;;;;;;;34.26;nan;97935.63;5061879;28;20151;-67
2023/08/15 07:53:34;;;;;;;19.17;8.32;;;;;;;34.31;nan;97929.03;5039246;28;20072;-68
2023/08/15 07:56:04;;;;;;;19.65;8.40;;;;;;;34.37;nan;97916.56;5061343;28;20479;-70
2023/08/15 07:58:35;;;;;;;19.70;8.60;;;;;;;34.25;nan;97914.81;5028157;28;20082;-69
2023/08/15 08:01:04;;;;;;;18.10;9.10;;;;;;;34.21;nan;97907.66;5058065;28;20379;-68
2023/08/15 08:03:38;;;;;;;18.40;7.85;;;;;;;34.23;nan;97908.88;5056893;28;20057;-68
2023/08/15 08:06:07;;;;;;;17.00;8.55;;;;;;;34.19;nan;97909.97;5058109;28;20387;-67
2023/08/15 08:08:48;;;;;;;16.67;8.50;;;;;;;34.13;nan;97912.19;5027734;28;20036;-68
2023/08/15 08:11:17;;;;;;;18.35;8.48;;;;;;;34.15;nan;97909.09;5054686;28;20040;-66
2023/08/15 08:13:47;;;;;;;20.15;8.68;;;;;;;34.13;nan;97903.16;5028422;28;20044;-68
2023/08/15 08:16:17;;;;;;;23.40;8.30;;;;;;;34.17;nan;97902.06;5060473;28;20386;-68
2023/08/15 08:18:46;;;;;;;16.40;7.65;;;;;;;34.16;nan;97896.94;5062431;28;20040;-66
2023/08/15 08:21:16;;;;;;;23.52;8.57;;;;;;;34.36;nan;97898.47;4710319;28;9999989;-65
2023/08/15 08:23:46;;;;;;;16.90;7.88;;;;;;;34.40;nan;97895.78;5060665;28;20040;-67
2023/08/15 08:26:15;;;;;;;13.57;7.75;;;;;;;34.03;nan;97893.59;5061402;28;20068;-67
2023/08/15 08:28:45;;;;;;;17.80;9.00;;;;;;;33.97;nan;97892.28;5058639;28;20369;-67
2023/08/15 08:31:15;;;;;;;17.83;8.00;;;;;;;33.58;nan;97886.03;5059126;28;20041;-69
2023/08/15 08:33:45;;;;;;;22.75;9.77;;;;;;;33.60;nan;97889.19;5043042;28;20048;-67
2023/08/15 08:36:14;;;;;;;19.95;8.65;;;;;;;33.59;nan;97886.84;5061584;28;20052;-66
2023/08/15 08:38:46;;;;;;;20.83;10.00;;;;;;;33.55;nan;97883.22;5059587;28;20052;-67
2023/08/15 08:41:16;;;;;;;15.95;8.40;;;;;;;33.35;nan;97882.44;5037616;28;20044;-67
2023/08/15 08:43:46;;;;;;;20.70;9.15;;;;;;;33.33;nan;97880.03;5051465;28;20060;-66
2023/08/15 08:46:17;;;;;;;20.60;9.25;;;;;;;33.20;nan;97867.63;5036262;28;20408;-67
2023/08/15 08:48:48;;;;;;;19.10;8.75;;;;;;;33.16;nan;97872.25;5056619;28;20037;-68
2023/08/15 08:51:20;;;;;;;23.70;9.63;;;;;;;32.94;nan;97868.22;5019944;28;20342;-68
2023/08/15 08:53:49;;;;;;;17.80;8.70;;;;;;;33.02;nan;97865.66;5018773;28;20053;-66
2023/08/15 08:56:23;;;;;;;19.52;8.88;;;;;;;32.92;nan;97865.06;5053209;28;20040;-68
2023/08/15 08:59:15;;;;;;;17.77;9.55;;;;;;;32.93;nan;97865.84;5063002;28;20048;-67
2023/08/15 09:01:45;;;;;;;22.23;9.65;;;;;;;32.83;nan;97866.41;5064844;28;20044;-67
2023/08/15 09:04:17;;;;;;;18.63;10.40;;;;;;;32.94;nan;97861.94;5071628;28;20078;-64
2023/08/15 09:06:47;;;;;;;17.75;8.65;;;;;;;33.05;nan;97853.94;5078671;28;20059;-68
2023/08/15 09:09:17;;;;;;;19.45;8.70;;;;;;;33.20;nan;97851.16;5079175;28;20466;-68
2023/08/15 09:11:50;;;;;;;17.17;9.13;;;;;;;33.09;nan;97843.84;5081386;28;20482;-67
2023/08/15 09:14:22;;;;;;;18.88;9.20;;;;;;;33.16;nan;97850.28;5074923;28;20276;-67
2023/08/15 09:16:52;;;;;;;22.27;9.23;;;;;;;33.10;nan;97857.22;5045979;28;20047;-67
2023/08/15 09:19:22;;;;;;;19.67;9.65;;;;;;;33.11;nan;97850.53;5083217;28;20127;-67
2023/08/15 09:21:51;;;;;;;15.00;8.80;;;;;;;33.16;nan;97850.28;5082688;28;20043;-68
2023/08/15 09:24:27;;;;;;;20.30;8.45;;;;;;;33.20;nan;97842.91;5087828;28;20056;-67
2023/08/15 09:26:56;;;;;;;21.02;9.13;;;;;;;33.20;nan;97842.91;5083448;28;20133;-67
2023/08/15 09:29:26;;;;;;;20.98;9.20;;;;;;;33.27;nan;97839.53;5082240;28;20093;-65
2023/08/15 09:31:56;;;;;;;21.35;9.93;;;;;;;33.18;nan;97828.78;5072129;28;20060;-66
2023/08/15 09:34:25;;;;;;;16.42;8.50;;;;;;;33.03;nan;97828.81;5063455;28;20040;-66
2023/08/15 09:36:55;;;;;;;15.65;9.10;;;;;;;33.14;nan;97830.66;5078647;28;20051;-66
2023/08/15 09:39:25;;;;;;;17.80;8.20;;;;;;;33.27;nan;97831.28;5079126;28;20747;-66
2023/08/15 09:41:54;;;;;;;17.08;8.05;;;;;;;33.21;nan;97828.03;5075655;28;20041;-66
2023/08/15 09:44:33;;;;;;;19.25;8.10;;;;;;;33.31;nan;97832.94;5076315;28;20359;-66
2023/08/15 09:47:03;;;;;;;15.27;8.52;;;;;;;33.31;nan;97832.16;5074550;28;20044;-66
2023/08/15 09:49:34;;;;;;;17.10;9.15;;;;;;;33.27;nan;97825.81;5066275;28;20044;-66
2023/08/15 09:52:05;;;;;;;15.98;8.48;;;;;;;33.32;nan;97825.50;5075121;28;20189;-67
2023/08/15 09:54:36;;;;;;;18.02;8.63;;;;;;;33.30;nan;97811.34;5083029;28;20495;-67
2023/08/15 09:57:05;;;;;;;17.77;8.20;;;;;;;33.23;nan;97817.50;5075151;28;20436;-67
2023/08/15 09:59:36;;;;;;;15.57;8.20;;;;;;;33.21;nan;97827.25;5083483;28;20067;-67
2023/08/15 10:02:23;;;;;;;19.58;9.63;;;;;;;33.11;nan;97828.59;5063395;28;20043;-66
2023/08/15 10:05:03;;;;;;;20.95;9.43;;;;;;;32.84;nan;97821.38;5061725;28;20133;-67
2023/08/15 10:07:33;;;;;;;20.98;9.98;;;;;;;32.53;nan;97813.97;5074688;28;20032;-67
2023/08/15 10:10:04;;;;;;;25.70;10.50;;;;;;;32.45;nan;97807.56;5083972;28;20049;-68
2023/08/15 10:12:36;;;;;;;23.77;10.70;;;;;;;32.44;nan;97811.44;5075485;28;20044;-66
2023/08/15 10:15:08;;;;;;;19.33;10.30;;;;;;;32.35;nan;97804.59;5078260;28;20106;-66
2023/08/15 10:17:38;;;;;;;17.42;11.20;;;;;;;32.18;nan;97807.69;5087623;28;20046;-66
2023/08/15 10:20:12;;;;;;;18.95;10.45;;;;;;;32.16;nan;97812.75;5075191;28;20132;-67
2023/08/15 10:22:41;;;;;;;20.40;10.68;;;;;;;32.11;nan;97810.25;5086320;28;20863;-66
2023/08/15 10:25:33;;;;;;;20.65;11.02;;;;;;;32.02;nan;97804.94;5076803;28;20805;-66
2023/08/15 10:28:09;;;;;;;31.63;16.92;;;;;;;31.98;nan;97802.13;5085119;28;20164;-68
2023/08/15 10:30:41;;;;;;;26.05;13.38;;;;;;;31.99;nan;97800.97;5081502;28;20097;-67
2023/08/15 10:33:13;;;;;;;22.00;11.52;;;;;;;31.92;nan;97799.97;5086224;28;20044;-69
2023/08/15 10:36:02;;;;;;;24.65;12.30;;;;;;;31.78;nan;97805.91;5087031;28;20059;-69
2023/08/15 10:38:40;;;;;;;19.52;11.50;;;;;;;31.79;nan;97807.50;5081033;28;20123;-68
2023/08/15 10:41:17;;;;;;;18.67;11.27;;;;;;;31.76;nan;97812.91;5085792;28;20501;-68
2023/08/15 10:43:59;;;;;;;15.80;10.98;;;;;;;31.63;nan;97804.75;5067368;28;20044;-67
2023/08/15 10:46:30;;;;;;;23.70;10.23;;;;;;;31.55;nan;97803.00;5082863;28;20086;-68
2023/08/15 10:49:07;;;;;;;12.23;8.93;;;;;;;31.54;nan;97793.16;5087615;28;20494;-68
2023/08/15 10:51:38;;;;;;;14.68;8.48;;;;;;;31.52;nan;97797.38;5076097;28;20044;-68
2023/08/15 10:54:11;;;;;;;17.05;9.18;;;;;;;31.47;nan;97809.38;5075457;28;20110;-68
2023/08/15 10:56:42;;;;;;;13.18;8.95;;;;;;;31.50;nan;97811.44;5087136;28;20713;-68
2023/08/15 10:59:13;;;;;;;17.67;8.88;;;;;;;31.50;nan;97818.84;5084870;28;20045;-71
2023/08/15 11:01:46;;;;;;;14.20;9.03;;;;;;;31.50;nan;97805.16;5086987;28;20050;-69
2023/08/15 11:04:18;;;;;;;17.15;8.68;;;;;;;31.49;nan;97806.31;5079183;28;20530;-69
2023/08/15 11:06:49;;;;;;;13.43;7.88;;;;;;;31.49;nan;97806.31;5086787;28;20056;-69
2023/08/15 11:09:19;;;;;;;14.73;9.25;;;;;;;31.51;nan;97814.97;5081935;28;20044;-67
2023/08/15 11:11:48;;;;;;;21.60;10.10;;;;;;;31.56;nan;97811.97;5080399;28;20448;-67
2023/08/15 11:14:19;;;;;;;19.05;10.35;;;;;;;31.48;nan;97807.44;5082637;28;20109;-72
2023/08/15 11:16:49;;;;;;;18.65;10.68;;;;;;;31.46;nan;97807.00;5086277;28;20043;-70
2023/08/15 11:19:19;;;;;;;23.23;10.95;;;;;;;31.38;nan;97802.50;5077866;28;20052;-69
2023/08/15 11:21:50;;;;;;;19.60;10.82;;;;;;;31.15;nan;97791.31;5077434;28;20532;-70
2023/08/15 11:24:20;;;;;;;20.58;10.80;;;;;;;31.16;nan;97790.16;5081043;28;20036;-70
2023/08/15 11:26:51;;;;;;;25.45;10.75;;;;;;;31.18;nan;97791.41;5076405;28;20129;-70
2023/08/15 11:29:20;;;;;;;28.15;11.75;;;;;;;31.24;nan;97783.75;5081294;28;20040;-70
2023/08/15 11:31:52;;;;;;;18.05;10.75;;;;;;;31.25;nan;97788.06;5065686;28;20398;-71
2023/08/15 11:34:23;;;;;;;21.95;11.23;;;;;;;31.19;nan;97801.22;5085028;28;20044;-70
2023/08/15 11:36:52;;;;;;;23.88;10.68;;;;;;;31.13;nan;97788.13;5061577;28;20534;-70
2023/08/15 11:39:22;;;;;;;14.40;9.02;;;;;;;31.03;nan;97775.72;5044039;28;20044;-70
2023/08/15 11:41:52;;;;;;;15.95;8.80;;;;;;;31.14;nan;97776.84;5082521;28;20048;-70
2023/08/15 11:44:22;;;;;;;14.90;8.85;;;;;;;31.18;nan;97783.19;5076663;28;20112;-70
2023/08/15 11:46:51;;;;;;;14.90;8.00;;;;;;;31.14;nan;97784.25;5081185;28;20064;-71
2023/08/15 11:49:23;;;;;;;11.55;8.52;;;;;;;31.14;nan;97781.50;5072885;28;20126;-70
2023/08/15 11:52:03;;;;;;;15.07;8.05;;;;;;;31.04;nan;97774.59;5082466;28;20056;-69
2023/08/15 11:54:33;;;;;;;18.67;8.80;;;;;;;31.03;nan;97778.47;5078367;28;20741;-70
2023/08/15 11:57:03;;;;;;;13.93;9.35;;;;;;;31.07;nan;97776.63;5088313;28;20048;-70